Time;durP1;ratioP1;P1;durP2;ratioP2;P2;SDS_P1;SDS_P2;PMS_P1;PMS_P2;Temp;Humidity;BMP_temperature;BMP_pressure;BME280_temperature;BME280_humidity;BME280_pressure;Samples;Min_cycle;Max_cycle;Signal;HPM_P1;HPM_P2
2023/06/07 00:00:21;;;;;;;0.00;0.00;;;12.10;77.30;;;;;;4998825;28;20104;-64
2023/06/07 00:02:47;;;;;;;0.00;0.00;;;12.10;77.20;;;;;;4991697;28;20460;-65
2023/06/07 00:05:13;;;;;;;0.10;0.10;;;12.10;77.10;;;;;;5009882;28;20050;-64
2023/06/07 00:07:39;;;;;;;0.00;0.00;;;12.10;77.40;;;;;;5010733;28;20045;-65
2023/06/07 00:10:06;;;;;;;0.00;0.00;;;12.10;77.40;;;;;;5010461;28;20046;-65
2023/06/07 00:12:32;;;;;;;0.00;0.00;;;12.10;77.60;;;;;;5011122;28;20041;-65
2023/06/07 00:14:59;;;;;;;0.00;0.00;;;12.10;77.50;;;;;;5010221;28;20469;-64
2023/06/07 00:17:25;;;;;;;0.00;0.00;;;12.10;77.50;;;;;;4981717;28;20046;-65
2023/06/07 00:19:52;;;;;;;0.00;0.00;;;12.10;77.50;;;;;;5010736;28;20050;-65
2023/06/07 00:22:18;;;;;;;0.22;0.22;;;12.10;77.50;;;;;;5006349;28;20085;-64
2023/06/07 00:24:44;;;;;;;0.00;0.00;;;12.10;77.80;;;;;;4983869;28;20463;-65
2023/06/07 00:27:09;;;;;;;0.00;0.00;;;12.10;77.70;;;;;;5005866;28;20495;-65
2023/06/07 00:29:35;;;;;;;0.00;0.00;;;12.20;77.80;;;;;;5010475;28;20046;-66
2023/06/07 00:32:02;;;;;;;0.00;0.00;;;12.20;78.00;;;;;;5001372;28;20038;-65
2023/06/07 00:34:28;;;;;;;0.00;0.00;;;12.20;77.90;;;;;;4994597;28;20085;-65
2023/06/07 00:36:54;;;;;;;0.00;0.00;;;12.20;77.90;;;;;;5005798;28;20037;-65
2023/06/07 00:39:20;;;;;;;0.00;0.00;;;12.20;77.80;;;;;;4999643;28;20464;-65
2023/06/07 00:41:45;;;;;;;0.00;0.00;;;12.20;78.10;;;;;;4973074;28;20050;-65
2023/06/07 00:44:12;;;;;;;0.28;0.17;;;12.10;78.00;;;;;;4990644;28;21084;-65
2023/06/07 00:46:38;;;;;;;0.00;0.00;;;12.10;78.00;;;;;;4975630;28;20060;-64
2023/06/07 00:49:04;;;;;;;0.00;0.00;;;12.10;78.20;;;;;;5010337;28;20049;-65
2023/06/07 00:51:31;;;;;;;0.00;0.00;;;12.20;78.00;;;;;;4992622;28;20499;-65
2023/06/07 00:54:04;;;;;;;2.40;1.65;;;12.10;78.10;;;;;;5006255;28;20088;-65
2023/06/07 00:56:29;;;;;;;0.00;0.00;;;12.10;77.90;;;;;;5004579;28;20546;-65
2023/06/07 00:58:56;;;;;;;0.00;0.00;;;12.10;77.90;;;;;;5009939;28;20085;-65
2023/06/07 01:01:21;;;;;;;0.00;0.00;;;12.10;78.10;;;;;;5009070;28;20513;-64
2023/06/07 01:03:47;;;;;;;0.00;0.00;;;12.10;78.20;;;;;;4997973;28;20042;-65
2023/06/07 01:06:13;;;;;;;0.05;0.05;;;12.10;78.20;;;;;;4989862;28;20448;-65
2023/06/07 01:08:40;;;;;;;0.00;0.00;;;12.10;78.40;;;;;;5008563;28;20056;-64
2023/06/07 01:11:08;;;;;;;0.00;0.00;;;12.10;78.50;;;;;;5009865;28;20042;-65
2023/06/07 01:13:34;;;;;;;0.00;0.00;;;12.10;78.50;;;;;;5009744;28;20120;-64
2023/06/07 01:16:00;;;;;;;0.22;0.22;;;12.10;78.40;;;;;;4991461;28;20050;-66
2023/06/07 01:18:26;;;;;;;0.00;0.00;;;12.10;78.50;;;;;;4992316;28;20053;-65
2023/06/07 01:20:57;;;;;;;0.10;0.10;;;12.10;78.70;;;;;;5004053;28;20050;-65
2023/06/07 01:23:29;;;;;;;0.00;0.00;;;12.10;78.60;;;;;;4992771;28;20054;-65
2023/06/07 01:25:57;;;;;;;0.00;0.00;;;12.10;78.50;;;;;;5008825;28;20042;-64
2023/06/07 01:28:28;;;;;;;0.00;0.00;;;12.10;78.70;;;;;;5009146;28;20058;-65
2023/06/07 01:30:54;;;;;;;0.00;0.00;;;12.10;78.80;;;;;;4991763;28;20037;-64
2023/06/07 01:33:21;;;;;;;0.00;0.00;;;12.00;78.90;;;;;;5009116;28;20042;-65
2023/06/07 01:35:50;;;;;;;0.00;0.00;;;12.00;79.00;;;;;;4999141;28;20037;-65
2023/06/07 01:38:19;;;;;;;0.00;0.00;;;12.10;79.00;;;;;;5008648;28;20085;-65
2023/06/07 01:40:45;;;;;;;0.00;0.00;;;12.00;79.00;;;;;;4999531;28;20053;-64
2023/06/07 01:43:11;;;;;;;0.00;0.00;;;12.10;78.80;;;;;;4991593;28;20128;-65
2023/06/07 01:45:37;;;;;;;0.00;0.00;;;12.10;79.10;;;;;;4984614;28;20121;-65
2023/06/07 01:48:04;;;;;;;0.00;0.00;;;12.10;79.00;;;;;;4991417;28;20529;-65
2023/06/07 01:50:30;;;;;;;0.00;0.00;;;12.00;79.00;;;;;;4997326;28;20058;-65
2023/06/07 01:52:55;;;;;;;0.43;0.43;;;12.10;79.20;;;;;;4988365;28;20061;-64
2023/06/07 01:55:22;;;;;;;0.00;0.00;;;12.00;79.00;;;;;;4961334;28;20418;-64
2023/06/07 01:58:02;;;;;;;0.63;0.63;;;12.10;79.20;;;;;;5007552;28;20546;-65
2023/06/07 02:00:45;;;;;;;0.00;0.00;;;12.00;79.80;;;;;;4975333;28;20506;-65
2023/06/07 02:03:16;;;;;;;0.00;0.00;;;12.00;79.60;;;;;;5008829;28;20049;-65
2023/06/07 02:05:50;;;;;;;0.00;0.00;;;12.10;79.70;;;;;;4993646;28;20053;-65
2023/06/07 02:08:34;;;;;;;0.00;0.00;;;12.10;79.60;;;;;;5006755;28;20041;-64
2023/06/07 02:11:02;;;;;;;0.00;0.00;;;12.10;79.50;;;;;;5000078;28;20466;-65
2023/06/07 02:13:33;;;;;;;0.00;0.00;;;12.10;79.60;;;;;;5008301;28;20042;-65
2023/06/07 02:15:58;;;;;;;0.67;0.67;;;12.10;80.00;;;;;;5008032;28;20042;-64
2023/06/07 02:18:24;;;;;;;0.00;0.00;;;12.10;79.70;;;;;;5010067;28;20045;-64
2023/06/07 02:20:50;;;;;;;0.00;0.00;;;12.10;79.40;;;;;;4995356;28;20088;-64
2023/06/07 02:23:16;;;;;;;0.00;0.00;;;12.10;79.40;;;;;;4994706;28;20049;-65
2023/06/07 02:25:42;;;;;;;0.00;0.00;;;12.10;79.40;;;;;;4996734;28;20042;-64
2023/06/07 02:28:07;;;;;;;0.00;0.00;;;12.10;79.40;;;;;;5012944;28;20065;-65
2023/06/07 02:30:33;;;;;;;0.00;0.00;;;12.20;79.40;;;;;;5013097;28;20042;-65
2023/06/07 02:33:00;;;;;;;0.08;0.08;;;12.20;79.50;;;;;;5012461;28;20058;-65
2023/06/07 02:35:26;;;;;;;0.00;0.00;;;12.20;79.80;;;;;;4993291;28;20083;-65
2023/06/07 02:37:52;;;;;;;0.00;0.00;;;12.20;79.60;;;;;;5012063;28;20450;-65
2023/06/07 02:40:18;;;;;;;0.00;0.00;;;12.20;79.30;;;;;;4998631;28;20050;-63
2023/06/07 02:42:47;;;;;;;0.00;0.00;;;12.20;79.60;;;;;;5006290;28;20712;-64
2023/06/07 02:45:13;;;;;;;0.32;0.30;;;12.30;79.30;;;;;;5001926;28;20048;-64
2023/06/07 02:47:39;;;;;;;0.00;0.00;;;12.20;79.20;;;;;;4994560;28;20049;-63
2023/06/07 02:50:06;;;;;;;0.00;0.00;;;12.30;79.20;;;;;;4994040;28;20518;-63
2023/06/07 02:52:33;;;;;;;0.00;0.00;;;12.30;79.20;;;;;;5012283;28;20054;-63
2023/06/07 02:54:59;;;;;;;0.00;0.00;;;12.30;79.20;;;;;;4994840;28;20801;-63
2023/06/07 02:57:25;;;;;;;0.00;0.00;;;12.30;79.30;;;;;;5007668;28;20042;-63
2023/06/07 02:59:52;;;;;;;0.00;0.00;;;12.20;79.50;;;;;;5011625;28;20038;-63
2023/06/07 03:02:18;;;;;;;0.00;0.00;;;12.20;79.50;;;;;;4994313;28;20042;-63
2023/06/07 03:04:44;;;;;;;0.00;0.00;;;12.30;79.40;;;;;;5012017;28;20042;-63
2023/06/07 03:07:10;;;;;;;0.00;0.00;;;12.30;79.50;;;;;;4994146;28;20104;-63
2023/06/07 03:09:36;;;;;;;0.00;0.00;;;12.30;79.50;;;;;;4989387;28;20089;-63
2023/06/07 03:12:02;;;;;;;0.95;0.95;;;12.30;79.50;;;;;;4994399;28;20081;-63
2023/06/07 03:14:27;;;;;;;5.15;1.05;;;12.30;79.50;;;;;;5008031;28;20049;-64
2023/06/07 03:16:53;;;;;;;0.00;0.00;;;12.30;79.80;;;;;;5011671;28;20848;-63
2023/06/07 03:19:19;;;;;;;0.00;0.00;;;12.30;79.80;;;;;;5011235;28;20037;-64
2023/06/07 03:21:45;;;;;;;0.00;0.00;;;12.30;79.60;;;;;;4976557;28;20049;-64
2023/06/07 03:24:14;;;;;;;0.00;0.00;;;12.30;79.80;;;;;;5009264;28;20117;-64
2023/06/07 03:26:40;;;;;;;0.05;0.05;;;12.30;79.70;;;;;;4993900;28;20077;-63
2023/06/07 03:29:06;;;;;;;0.00;0.00;;;12.30;79.60;;;;;;4993518;28;20077;-64
2023/06/07 03:31:32;;;;;;;0.00;0.00;;;12.30;79.50;;;;;;5011527;28;20045;-63
2023/06/07 03:33:58;;;;;;;0.00;0.00;;;12.30;79.40;;;;;;5011310;28;20081;-63
2023/06/07 03:36:25;;;;;;;0.00;0.00;;;12.30;79.60;;;;;;5011037;28;20077;-64
2023/06/07 03:38:52;;;;;;;0.00;0.00;;;12.30;79.40;;;;;;4992391;28;20723;-64
2023/06/07 03:41:18;;;;;;;0.00;0.00;;;12.40;79.30;;;;;;5010720;28;20124;-63
2023/06/07 03:43:43;;;;;;;0.00;0.00;;;12.30;79.30;;;;;;4992047;28;20136;-64
2023/06/07 03:46:09;;;;;;;0.00;0.00;;;12.30;79.40;;;;;;5008196;28;20042;-64
2023/06/07 03:48:36;;;;;;;0.00;0.00;;;12.30;79.40;;;;;;5011441;28;20104;-64
2023/06/07 03:51:02;;;;;;;0.00;0.00;;;12.30;79.40;;;;;;4995650;28;20054;-64
2023/06/07 03:53:27;;;;;;;0.00;0.00;;;12.30;79.60;;;;;;4999767;28;20042;-64
2023/06/07 03:55:54;;;;;;;0.00;0.00;;;12.30;79.60;;;;;;4990543;28;20069;-63
2023/06/07 03:58:20;;;;;;;0.00;0.00;;;12.30;79.60;;;;;;4987105;28;20060;-63
2023/06/07 04:00:47;;;;;;;0.00;0.00;;;12.30;79.50;;;;;;5007086;28;20399;-63
2023/06/07 04:03:13;;;;;;;0.38;0.38;;;12.40;79.40;;;;;;4983591;28;20034;-63
2023/06/07 04:05:39;;;;;;;0.00;0.00;;;12.40;79.40;;;;;;5009622;28;20049;-63
2023/06/07 04:08:06;;;;;;;0.52;0.52;;;12.30;79.60;;;;;;5008811;28;20049;-64
2023/06/07 04:10:31;;;;;;;0.00;0.00;;;12.30;79.70;;;;;;5010544;28;20557;-63
2023/06/07 04:12:57;;;;;;;0.00;0.00;;;12.40;79.50;;;;;;5002047;28;20045;-63
2023/06/07 04:15:23;;;;;;;0.25;0.25;;;12.40;79.70;;;;;;4991005;28;20037;-64
2023/06/07 04:17:48;;;;;;;0.00;0.00;;;12.30;79.60;;;;;;5008263;28;20050;-63
2023/06/07 04:20:14;;;;;;;0.00;0.00;;;12.30;79.50;;;;;;5007781;28;20052;-64
2023/06/07 04:22:41;;;;;;;0.10;0.10;;;12.30;79.60;;;;;;5002873;28;20125;-63
2023/06/07 04:25:07;;;;;;;0.10;0.10;;;12.30;79.60;;;;;;5004357;28;20043;-63
2023/06/07 04:27:34;;;;;;;0.00;0.00;;;12.30;79.70;;;;;;5009979;28;20046;-64
2023/06/07 04:30:02;;;;;;;0.00;0.00;;;12.30;79.80;;;;;;4992659;28;20054;-63
2023/06/07 04:32:28;;;;;;;0.00;0.00;;;12.30;79.60;;;;;;4999883;28;20046;-64
2023/06/07 04:34:56;;;;;;;0.03;0.03;;;12.30;79.60;;;;;;4971258;28;20056;-63
2023/06/07 04:37:24;;;;;;;0.00;0.00;;;12.40;79.70;;;;;;5005549;28;20594;-65
2023/06/07 04:39:51;;;;;;;0.00;0.00;;;12.40;79.70;;;;;;5009022;28;20046;-64
2023/06/07 04:42:17;;;;;;;0.00;0.00;;;12.30;79.60;;;;;;5009477;28;20050;-63
2023/06/07 04:44:43;;;;;;;0.00;0.00;;;12.40;79.60;;;;;;5010133;28;20049;-64
2023/06/07 04:47:09;;;;;;;0.00;0.00;;;12.40;79.50;;;;;;4975515;28;20049;-64
2023/06/07 04:49:35;;;;;;;0.10;0.10;;;12.40;79.60;;;;;;4981593;28;20050;-64
2023/06/07 04:52:05;;;;;;;0.03;0.03;;;12.40;79.50;;;;;;4970675;28;20082;-64
2023/06/07 04:54:32;;;;;;;0.00;0.00;;;12.50;79.60;;;;;;4978014;28;20053;-64
2023/06/07 04:56:58;;;;;;;0.00;0.00;;;12.50;79.40;;;;;;4990077;28;20073;-63
2023/06/07 04:59:24;;;;;;;0.80;0.80;;;12.50;79.30;;;;;;4988731;28;20062;-64
2023/06/07 05:01:51;;;;;;;0.00;0.00;;;12.50;79.30;;;;;;4983277;28;20097;-64
2023/06/07 05:04:16;;;;;;;0.00;0.00;;;12.50;79.50;;;;;;4975499;28;20069;-64
2023/06/07 05:06:42;;;;;;;0.00;0.00;;;12.50;79.40;;;;;;4988499;28;20073;-63
2023/06/07 05:09:08;;;;;;;0.00;0.00;;;12.50;79.50;;;;;;4990212;28;20046;-64
2023/06/07 05:11:34;;;;;;;0.00;0.00;;;12.50;79.60;;;;;;4986128;28;20058;-64
2023/06/07 05:13:59;;;;;;;0.65;0.65;;;12.60;79.50;;;;;;4972674;28;20092;-64
2023/06/07 05:16:25;;;;;;;0.00;0.00;;;12.50;79.30;;;;;;4988776;28;20517;-65
2023/06/07 05:18:53;;;;;;;0.00;0.00;;;12.60;79.20;;;;;;4985443;28;20399;-64
2023/06/07 05:21:18;;;;;;;0.38;0.38;;;12.60;79.10;;;;;;4986525;28;20546;-64
2023/06/07 05:23:44;;;;;;;1.77;0.88;;;12.60;79.20;;;;;;4970505;28;20134;-64
2023/06/07 05:26:10;;;;;;;0.00;0.00;;;12.60;79.10;;;;;;4983841;28;20129;-64
2023/06/07 05:28:36;;;;;;;0.00;0.00;;;12.60;79.20;;;;;;4985336;28;20053;-64
2023/06/07 05:31:02;;;;;;;0.00;0.00;;;12.60;79.20;;;;;;4986804;28;20078;-64
2023/06/07 05:33:28;;;;;;;0.00;0.00;;;12.70;79.20;;;;;;4989297;28;20494;-65
2023/06/07 05:35:55;;;;;;;0.00;0.00;;;12.70;79.30;;;;;;4980692;28;20134;-65
2023/06/07 05:38:21;;;;;;;0.00;0.00;;;12.80;79.40;;;;;;4984245;28;20058;-64
2023/06/07 05:40:46;;;;;;;0.35;0.35;;;12.70;79.30;;;;;;4989028;28;20100;-64
2023/06/07 05:43:12;;;;;;;0.17;0.17;;;12.80;79.10;;;;;;4989676;28;20038;-64
2023/06/07 05:45:40;;;;;;;0.00;0.00;;;12.80;79.10;;;;;;4968302;28;20050;-64
2023/06/07 05:48:06;;;;;;;0.00;0.00;;;12.90;78.90;;;;;;4987663;28;20051;-64
2023/06/07 05:50:31;;;;;;;0.00;0.00;;;12.90;78.70;;;;;;4998377;28;20050;-65
2023/06/07 05:52:57;;;;;;;0.00;0.00;;;12.80;78.70;;;;;;5007360;28;20038;-64
2023/06/07 05:55:29;;;;;;;0.10;0.10;;;12.90;78.70;;;;;;4995636;28;20174;-65
2023/06/07 05:57:55;;;;;;;;;;;12.90;78.60;;;;;;4996675;28;20447;-64
2023/06/07 06:00:21;;;;;;;0.00;0.00;;;12.90;78.60;;;;;;5006628;28;19977;-64
2023/06/07 06:02:46;;;;;;;0.10;0.10;;;13.00;78.70;;;;;;4993559;28;20041;-64
2023/06/07 06:05:12;;;;;;;0.00;0.00;;;13.00;78.70;;;;;;5011042;28;20049;-64
2023/06/07 06:07:38;;;;;;;0.05;0.05;;;13.00;78.70;;;;;;4989756;28;20145;-64
2023/06/07 06:10:04;;;;;;;0.00;0.00;;;13.00;78.60;;;;;;4985295;28;20133;-64
2023/06/07 06:12:33;;;;;;;0.00;0.00;;;13.10;78.70;;;;;;5011923;28;20034;-64
2023/06/07 06:15:00;;;;;;;0.00;0.00;;;13.10;78.80;;;;;;4974621;28;20042;-63
2023/06/07 06:17:25;;;;;;;0.00;0.00;;;13.10;78.60;;;;;;5010446;28;20057;-64
2023/06/07 06:19:51;;;;;;;0.00;0.00;;;13.20;78.50;;;;;;5012333;28;20048;-63
2023/06/07 06:22:16;;;;;;;0.10;0.10;;;13.20;78.60;;;;;;5000522;28;20043;-63
2023/06/07 06:24:42;;;;;;;0.00;0.00;;;13.20;78.40;;;;;;4989000;28;20117;-62
2023/06/07 06:27:08;;;;;;;2.00;1.27;;;13.30;78.10;;;;;;5003258;28;20140;-62
2023/06/07 06:29:34;;;;;;;0.00;0.00;;;13.30;77.80;;;;;;5009030;28;20042;-62
2023/06/07 06:32:00;;;;;;;0.00;0.00;;;13.30;77.70;;;;;;5006382;28;20911;-62
2023/06/07 06:34:28;;;;;;;0.43;0.43;;;13.30;77.70;;;;;;4997463;28;20065;-63
2023/06/07 06:36:53;;;;;;;0.00;0.00;;;13.30;77.80;;;;;;5007936;28;20494;-62
2023/06/07 06:39:19;;;;;;;0.00;0.00;;;13.40;77.80;;;;;;5003855;28;20216;-63
2023/06/07 06:41:45;;;;;;;0.00;0.00;;;13.50;77.80;;;;;;5001420;28;20050;-62
2023/06/07 06:44:11;;;;;;;0.00;0.00;;;13.50;77.70;;;;;;5001649;28;20038;-63
2023/06/07 06:46:36;;;;;;;0.00;0.00;;;13.60;77.70;;;;;;5009162;28;20132;-62
2023/06/07 06:49:02;;;;;;;0.75;0.75;;;13.60;77.70;;;;;;5007896;28;20050;-62
2023/06/07 06:51:28;;;;;;;0.00;0.00;;;13.70;77.80;;;;;;4991897;28;20061;-63
2023/06/07 06:53:53;;;;;;;0.00;0.00;;;13.70;77.70;;;;;;4998641;28;20042;-62
2023/06/07 06:56:20;;;;;;;0.00;0.00;;;13.80;77.50;;;;;;5011642;28;20426;-63
2023/06/07 06:58:46;;;;;;;0.03;0.03;;;13.90;77.20;;;;;;5006254;28;20045;-62
2023/06/07 07:01:15;;;;;;;0.00;0.00;;;13.80;76.90;;;;;;4993129;28;20081;-62
2023/06/07 07:03:41;;;;;;;0.00;0.00;;;13.90;76.90;;;;;;4977769;28;20046;-62
2023/06/07 07:06:10;;;;;;;1.17;0.52;;;13.90;76.50;;;;;;4995734;28;20080;-62
2023/06/07 07:08:36;;;;;;;0.10;0.10;;;13.90;76.30;;;;;;5002234;28;20049;-62
2023/06/07 07:11:02;;;;;;;0.00;0.00;;;13.90;76.20;;;;;;5011395;28;20432;-62
2023/06/07 07:13:28;;;;;;;0.00;0.00;;;14.00;76.20;;;;;;5004184;28;20050;-62
2023/06/07 07:15:53;;;;;;;0.00;0.00;;;14.00;76.00;;;;;;5011233;28;20049;-63
2023/06/07 07:18:19;;;;;;;0.10;0.10;;;14.10;76.10;;;;;;5011139;28;20466;-62
2023/06/07 07:20:45;;;;;;;0.00;0.00;;;14.10;76.00;;;;;;5007241;28;20046;-63
2023/06/07 07:23:11;;;;;;;0.00;0.00;;;14.10;75.80;;;;;;4992099;28;20058;-63
2023/06/07 07:25:37;;;;;;;0.00;0.00;;;14.10;75.70;;;;;;4991641;28;20056;-63
2023/06/07 07:28:03;;;;;;;0.80;0.40;;;14.20;75.60;;;;;;4991239;28;20046;-63
2023/06/07 07:30:29;;;;;;;0.00;0.00;;;14.30;75.60;;;;;;4991801;28;20042;-63
2023/06/07 07:32:56;;;;;;;0.10;0.10;;;14.40;75.70;;;;;;5000775;28;20541;-64
2023/06/07 07:35:22;;;;;;;0.00;0.00;;;14.60;75.90;;;;;;5010534;28;20049;-63
2023/06/07 07:37:49;;;;;;;0.00;0.00;;;14.60;75.50;;;;;;5005905;28;20117;-63
2023/06/07 07:40:15;;;;;;;0.00;0.00;;;14.70;75.20;;;;;;4998768;28;20064;-63
2023/06/07 07:42:40;;;;;;;0.00;0.00;;;14.70;74.90;;;;;;4999377;28;20058;-63
2023/06/07 07:45:07;;;;;;;2.38;0.55;;;14.80;75.10;;;;;;5000866;28;20487;-62
2023/06/07 07:47:33;;;;;;;0.00;0.00;;;14.70;74.70;;;;;;4975153;28;20061;-62
2023/06/07 07:50:00;;;;;;;0.10;0.10;;;14.70;74.50;;;;;;4998533;28;20058;-62
2023/06/07 07:52:26;;;;;;;0.00;0.00;;;14.80;74.60;;;;;;5009157;28;20054;-64
2023/06/07 07:54:51;;;;;;;0.00;0.00;;;14.80;74.40;;;;;;4994423;28;20068;-65
2023/06/07 07:57:17;;;;;;;0.00;0.00;;;14.80;74.50;;;;;;4957329;28;20077;-63
2023/06/07 07:59:43;;;;;;;0.00;0.00;;;14.80;74.60;;;;;;4973375;28;20590;-63
2023/06/07 08:02:09;;;;;;;0.00;0.00;;;14.80;74.30;;;;;;4995860;28;20064;-63
2023/06/07 08:04:35;;;;;;;0.00;0.00;;;14.90;74.30;;;;;;5009726;28;20077;-63
2023/06/07 08:07:01;;;;;;;0.00;0.00;;;14.90;74.30;;;;;;5002205;28;20086;-63
2023/06/07 08:09:27;;;;;;;0.10;0.10;;;15.00;73.90;;;;;;4994024;28;20099;-62
2023/06/07 08:11:52;;;;;;;0.00;0.00;;;14.90;74.00;;;;;;5009695;28;20527;-63
2023/06/07 08:14:18;;;;;;;0.03;0.03;;;14.90;73.80;;;;;;5010363;28;20566;-62
2023/06/07 08:16:44;;;;;;;0.10;0.10;;;14.90;73.80;;;;;;5009137;28;20943;-62
2023/06/07 08:19:10;;;;;;;0.00;0.00;;;14.90;73.80;;;;;;5010517;28;20089;-62
2023/06/07 08:21:36;;;;;;;0.30;0.30;;;14.90;73.90;;;;;;5009811;28;20116;-62
2023/06/07 08:24:02;;;;;;;0.00;0.00;;;14.90;73.80;;;;;;4992627;28;20124;-62
2023/06/07 08:26:28;;;;;;;0.10;0.10;;;14.90;73.70;;;;;;5009189;28;20454;-62
2023/06/07 08:28:53;;;;;;;0.00;0.00;;;14.80;73.60;;;;;;5010433;28;20096;-62
2023/06/07 08:31:19;;;;;;;0.10;0.10;;;14.80;73.70;;;;;;5009757;28;20533;-62
2023/06/07 08:33:45;;;;;;;0.00;0.00;;;14.90;73.80;;;;;;4992078;28;20050;-62
2023/06/07 08:36:10;;;;;;;0.00;0.00;;;14.90;73.90;;;;;;5009189;28;20376;-62
2023/06/07 08:38:41;;;;;;;0.00;0.00;;;15.00;73.90;;;;;;4976002;28;20130;-62
2023/06/07 08:41:07;;;;;;;0.15;0.15;;;15.00;73.50;;;;;;5009432;28;20057;-62
2023/06/07 08:43:33;;;;;;;0.45;0.40;;;15.10;73.80;;;;;;4992207;28;20542;-62
2023/06/07 08:46:03;;;;;;;0.00;0.00;;;15.20;73.60;;;;;;5009642;28;20038;-62
2023/06/07 08:48:30;;;;;;;0.10;0.10;;;15.30;73.40;;;;;;5008959;28;20937;-62
2023/06/07 08:50:57;;;;;;;0.00;0.00;;;15.30;72.70;;;;;;5006569;28;20410;-62
2023/06/07 08:53:27;;;;;;;0.00;0.00;;;15.30;72.80;;;;;;5000312;28;20050;-62
2023/06/07 08:55:54;;;;;;;0.25;0.25;;;15.40;72.70;;;;;;5006784;28;20045;-62
2023/06/07 08:58:20;;;;;;;0.00;0.00;;;15.50;72.60;;;;;;4990837;28;20044;-61
2023/06/07 09:00:47;;;;;;;0.22;0.22;;;15.50;72.40;;;;;;4995193;28;20100;-61
2023/06/07 09:03:12;;;;;;;0.00;0.00;;;15.50;72.50;;;;;;5007193;28;20179;-61
2023/06/07 09:05:38;;;;;;;0.00;0.00;;;15.60;72.20;;;;;;4991604;28;20498;-64
2023/06/07 09:08:03;;;;;;;0.65;0.65;;;15.60;72.20;;;;;;5008679;28;20068;-66
2023/06/07 09:10:30;;;;;;;0.08;0.08;;;15.60;72.30;;;;;;5007653;28;20438;-63
2023/06/07 09:12:55;;;;;;;0.10;0.10;;;15.70;72.30;;;;;;5009125;28;20061;-64
2023/06/07 09:15:21;;;;;;;0.00;0.00;;;15.80;72.30;;;;;;5002877;28;20034;-62
2023/06/07 09:18:04;;;;;;;0.00;0.00;;;15.90;72.30;;;;;;5008517;28;20499;-62
2023/06/07 09:20:31;;;;;;;0.00;0.00;;;15.90;72.00;;;;;;5008860;28;20044;-62
2023/06/07 09:23:08;;;;;;;0.00;0.00;;;15.90;71.30;;;;;;5008842;28;20068;-62
2023/06/07 09:25:34;;;;;;;0.43;0.43;;;15.90;70.90;;;;;;5008045;28;20049;-62
2023/06/07 09:28:02;;;;;;;0.00;0.00;;;15.90;70.30;;;;;;5008435;28;20070;-62
2023/06/07 09:30:28;;;;;;;0.20;0.20;;;16.00;71.20;;;;;;5008660;28;20046;-62
2023/06/07 09:32:53;;;;;;;0.00;0.00;;;16.00;71.50;;;;;;5008770;28;20058;-62
2023/06/07 09:35:19;;;;;;;0.00;0.00;;;16.10;71.40;;;;;;5008837;28;20128;-62
2023/06/07 09:37:54;;;;;;;0.00;0.00;;;16.20;71.10;;;;;;5008008;28;20064;-62
2023/06/07 09:40:21;;;;;;;0.00;0.00;;;16.10;70.80;;;;;;5004380;28;20510;-62
2023/06/07 09:42:59;;;;;;;23.88;1.35;;;16.10;70.60;;;;;;4998650;28;20049;-62
2023/06/07 09:45:25;;;;;;;0.00;0.00;;;16.10;70.60;;;;;;4991166;28;20435;-62
2023/06/07 09:48:02;;;;;;;0.20;0.20;;;16.20;70.60;;;;;;5008895;28;20046;-62
2023/06/07 09:50:28;;;;;;;0.00;0.00;;;16.20;70.80;;;;;;5008486;28;20105;-62
2023/06/07 09:52:58;;;;;;;1.33;1.05;;;16.20;71.10;;;;;;5008833;28;20034;-62
2023/06/07 09:55:28;;;;;;;1.00;0.57;;;16.30;71.50;;;;;;4995858;28;20053;-64
2023/06/07 09:57:55;;;;;;;0.00;0.00;;;16.50;70.90;;;;;;5006807;28;20038;-62
2023/06/07 10:00:21;;;;;;;0.00;0.00;;;16.50;70.60;;;;;;4991148;28;20049;-61
2023/06/07 10:02:49;;;;;;;0.00;0.00;;;16.50;70.50;;;;;;4989460;28;20049;-63
2023/06/07 10:05:16;;;;;;;0.00;0.00;;;16.60;70.80;;;;;;5008129;28;20081;-62
2023/06/07 10:07:45;;;;;;;0.00;0.00;;;16.60;70.10;;;;;;5005602;28;20529;-62
2023/06/07 10:10:14;;;;;;;0.00;0.00;;;16.60;69.90;;;;;;5002239;28;20053;-62
2023/06/07 10:12:44;;;;;;;0.00;0.00;;;16.80;70.50;;;;;;5004572;28;20055;-62
2023/06/07 10:15:21;;;;;;;0.00;0.00;;;16.80;70.30;;;;;;5008037;28;20046;-61
2023/06/07 10:17:51;;;;;;;0.00;0.00;;;16.90;70.10;;;;;;4989930;28;20863;-62
2023/06/07 10:20:28;;;;;;;0.00;0.00;;;16.90;69.50;;;;;;5008528;28;20045;-62
2023/06/07 10:23:26;;;;;;;1.30;0.52;;;16.90;69.60;;;;;;5008452;28;20053;-62
2023/06/07 10:25:53;;;;;;;0.00;0.00;;;16.90;69.50;;;;;;5007591;28;20044;-62
2023/06/07 10:28:29;;;;;;;0.00;0.00;;;17.00;69.40;;;;;;4990954;28;20046;-62
2023/06/07 10:31:05;;;;;;;0.00;0.00;;;16.90;69.30;;;;;;5008417;28;20054;-63
2023/06/07 10:33:36;;;;;;;0.38;0.17;;;17.00;69.40;;;;;;5008111;28;20053;-62
2023/06/07 10:36:02;;;;;;;0.00;0.00;;;17.10;69.60;;;;;;5009224;28;20045;-62
2023/06/07 10:38:32;;;;;;;0.13;0.13;;;17.10;69.20;;;;;;5008448;28;20042;-62
2023/06/07 10:40:59;;;;;;;0.10;0.10;;;17.10;69.20;;;;;;5003938;28;20088;-62
2023/06/07 10:43:30;;;;;;;0.08;0.08;;;17.10;69.00;;;;;;5011380;28;20041;-61
2023/06/07 10:46:23;;;;;;;0.00;0.00;;;17.10;68.60;;;;;;5012153;28;20045;-61
2023/06/07 10:48:49;;;;;;;1.02;0.20;;;17.20;68.50;;;;;;5011774;28;20523;-62
2023/06/07 10:51:15;;;;;;;0.00;0.00;;;17.20;68.70;;;;;;5012156;28;20077;-62
2023/06/07 10:53:53;;;;;;;0.00;0.00;;;17.40;68.90;;;;;;4983109;28;20106;-62
2023/06/07 10:56:35;;;;;;;0.15;0.15;;;17.50;68.80;;;;;;5000129;28;20522;-63
2023/06/07 10:59:12;;;;;;;0.00;0.00;;;17.60;68.90;;;;;;5008843;28;20046;-62
2023/06/07 11:01:38;;;;;;;0.05;0.05;;;17.80;68.20;;;;;;5010834;28;20111;-63
2023/06/07 11:04:04;;;;;;;0.00;0.00;;;17.70;68.00;;;;;;5004131;28;20887;-62
2023/06/07 11:06:32;;;;;;;0.10;0.10;;;17.80;67.80;;;;;;5009549;28;20042;-63
2023/06/07 11:09:22;;;;;;;0.32;0.32;;;18.00;67.90;;;;;;4978269;28;20077;-63
2023/06/07 11:11:48;;;;;;;0.00;0.00;;;18.10;67.00;;;;;;5011405;28;20112;-62
2023/06/07 11:14:13;;;;;;;0.05;0.05;;;18.10;65.90;;;;;;4994512;28;20506;-62
2023/06/07 11:16:40;;;;;;;1.25;0.43;;;18.20;66.60;;;;;;4994150;28;20125;-63
2023/06/07 11:19:14;;;;;;;0.30;0.30;;;18.20;66.80;;;;;;5011356;28;20073;-63
2023/06/07 11:21:55;;;;;;;0.22;0.22;;;18.30;66.00;;;;;;5012082;28;20049;-63
2023/06/07 11:24:21;;;;;;;0.17;0.17;;;18.30;66.40;;;;;;4978821;28;20077;-62
2023/06/07 11:26:50;;;;;;;0.00;0.00;;;18.30;66.40;;;;;;5010566;28;20041;-62
2023/06/07 11:29:19;;;;;;;0.40;0.40;;;18.30;66.70;;;;;;5004398;28;20042;-62
2023/06/07 11:31:56;;;;;;;0.20;0.20;;;18.40;66.40;;;;;;4993567;28;20135;-63
2023/06/07 11:34:22;;;;;;;0.57;0.50;;;18.30;66.40;;;;;;5011309;28;20054;-62
2023/06/07 11:36:47;;;;;;;0.00;0.00;;;18.30;66.30;;;;;;5009965;28;20384;-62
2023/06/07 11:39:16;;;;;;;0.00;0.00;;;18.40;66.20;;;;;;5010299;28;20511;-62
2023/06/07 11:41:43;;;;;;;1.10;1.05;;;18.50;66.00;;;;;;5010589;28;20507;-63
2023/06/07 11:44:09;;;;;;;0.10;0.10;;;18.50;65.20;;;;;;5011189;28;20049;-63
2023/06/07 11:46:36;;;;;;;0.00;0.00;;;18.60;65.30;;;;;;5010739;28;20038;-63
2023/06/07 11:49:03;;;;;;;0.00;0.00;;;18.60;65.80;;;;;;4993596;28;20052;-63
2023/06/07 11:51:29;;;;;;;0.00;0.00;;;18.60;66.00;;;;;;5010327;28;20053;-62
2023/06/07 11:53:58;;;;;;;0.10;0.10;;;18.80;65.90;;;;;;5010980;28;20626;-63
2023/06/07 11:56:25;;;;;;;0.00;0.00;;;18.90;65.80;;;;;;5001515;28;20049;-63
2023/06/07 11:58:51;;;;;;;0.00;0.00;;;19.00;65.20;;;;;;4988816;28;20077;-63
2023/06/07 12:01:17;;;;;;;4.13;1.35;;;19.00;64.60;;;;;;4991312;28;20148;-62
2023/06/07 12:03:43;;;;;;;0.20;0.20;;;19.10;65.30;;;;;;5001474;28;20511;-63
2023/06/07 12:06:09;;;;;;;0.00;0.00;;;19.10;64.50;;;;;;5001664;28;20050;-63
2023/06/07 12:08:34;;;;;;;0.00;0.00;;;19.20;64.60;;;;;;5000134;28;20060;-63
2023/06/07 12:11:01;;;;;;;0.00;0.00;;;19.20;64.30;;;;;;4998819;28;20070;-62
2023/06/07 12:13:30;;;;;;;1.33;1.23;;;19.20;64.30;;;;;;5009363;28;20042;-63
2023/06/07 12:16:00;;;;;;;0.57;0.55;;;19.30;63.80;;;;;;5008891;28;20129;-63
2023/06/07 12:18:30;;;;;;;0.00;0.00;;;19.30;62.90;;;;;;4989596;28;20046;-63
2023/06/07 12:21:12;;;;;;;0.00;0.00;;;19.30;64.20;;;;;;4992377;28;20058;-62
2023/06/07 12:23:44;;;;;;;0.00;0.00;;;19.20;64.40;;;;;;5007423;28;20046;-63
2023/06/07 12:26:20;;;;;;;0.00;0.00;;;19.30;63.60;;;;;;4991468;28;20080;-63
2023/06/07 12:28:48;;;;;;;0.00;0.00;;;19.40;64.10;;;;;;5008721;28;20052;-63
2023/06/07 12:31:15;;;;;;;0.00;0.00;;;19.40;63.30;;;;;;5009493;28;20054;-63
2023/06/07 12:33:55;;;;;;;0.05;0.05;;;19.40;63.40;;;;;;5009843;28;20046;-63
2023/06/07 12:36:27;;;;;;;0.00;0.00;;;19.40;63.50;;;;;;4999682;28;20109;-62
2023/06/07 12:38:53;;;;;;;0.00;0.00;;;19.50;63.60;;;;;;5000130;28;20041;-63
2023/06/07 12:41:23;;;;;;;0.00;0.00;;;19.60;63.30;;;;;;4991669;28;20636;-63
2023/06/07 12:43:49;;;;;;;0.00;0.00;;;19.70;63.70;;;;;;5007125;28;20096;-63
2023/06/07 12:46:15;;;;;;;0.00;0.00;;;19.80;62.80;;;;;;5009988;28;20073;-64
2023/06/07 12:48:43;;;;;;;0.15;0.15;;;19.70;62.60;;;;;;5009195;28;20076;-63